createdAt,value
2017-04-10T00:00:22.547Z,18.13
2017-04-10T00:01:23.139Z,18.18
2017-04-10T00:02:23.713Z,18.13
2017-04-10T00:03:24.291Z,18.25
2017-04-10T00:04:24.862Z,18.37
2017-04-10T00:05:25.436Z,18.33
2017-04-10T00:06:26.013Z,18.35
2017-04-10T00:07:26.589Z,18.49
2017-04-10T00:08:27.166Z,18.35
2017-04-10T00:09:27.744Z,18.49
2017-04-10T00:10:28.316Z,18.58
2017-04-10T00:11:28.894Z,18.56
2017-04-10T00:12:29.472Z,18.63
2017-04-10T00:13:30.045Z,18.66
2017-04-10T00:14:30.824Z,18.65
2017-04-10T00:15:31.399Z,18.66
2017-04-10T00:16:31.976Z,18.78
2017-04-10T00:17:32.568Z,18.84
2017-04-10T00:18:33.145Z,18.75
2017-04-10T00:19:33.721Z,18.86
2017-04-10T00:20:34.298Z,18.78
2017-04-10T00:21:34.873Z,18.92
2017-04-10T00:22:35.453Z,18.93
2017-04-10T00:23:36.027Z,18.93
2017-04-10T00:24:36.603Z,18.88
2017-04-10T00:25:37.181Z,19.02
2017-04-10T00:26:37.756Z,19.00
2017-04-10T00:27:38.332Z,19.00
2017-04-10T00:28:38.908Z,19.07
2017-04-10T00:29:39.485Z,19.04
2017-04-10T00:30:40.064Z,19.07
2017-04-10T00:31:40.640Z,19.08
2017-04-10T00:32:41.215Z,19.12
2017-04-10T00:33:41.797Z,19.12
2017-04-10T00:34:42.369Z,19.12
2017-04-10T00:35:42.947Z,19.12
2017-04-10T00:36:43.521Z,19.30
2017-04-10T00:37:44.117Z,19.22
2017-04-10T00:38:44.691Z,19.24
2017-04-10T00:39:45.469Z,19.26
2017-04-10T00:40:46.044Z,19.29
2017-04-10T00:41:46.622Z,19.24
2017-04-10T00:42:47.198Z,19.29
2017-04-10T00:43:47.773Z,19.36
2017-04-10T00:44:48.347Z,19.37
2017-04-10T00:45:48.925Z,19.37
2017-04-10T00:46:49.502Z,19.31
2017-04-10T00:47:50.076Z,19.27
2017-04-10T00:48:50.652Z,19.34
2017-04-10T00:49:51.228Z,19.37
2017-04-10T00:50:51.804Z,19.39
2017-04-10T00:51:52.383Z,19.34
2017-04-10T00:52:52.959Z,19.47
2017-04-10T00:53:53.536Z,19.48
2017-04-10T00:54:54.315Z,19.54
2017-04-10T00:55:54.891Z,19.55
2017-04-10T00:56:55.468Z,19.51
2017-04-10T00:57:56.063Z,19.51
2017-04-10T00:58:56.639Z,19.47
2017-04-10T00:59:57.216Z,19.47
2017-04-10T01:00:57.789Z,19.47
2017-04-10T01:01:58.366Z,19.54
2017-04-10T01:02:58.948Z,19.52
2017-04-10T01:03:59.520Z,19.45
2017-04-10T01:05:00.096Z,19.47
2017-04-10T01:06:00.671Z,19.51
2017-04-10T01:07:01.248Z,19.49
2017-04-10T01:08:01.827Z,19.44
2017-04-10T01:09:02.403Z,19.52
2017-04-10T01:10:03.179Z,19.44
2017-04-10T01:11:03.754Z,19.47
2017-04-10T01:12:04.330Z,19.51
2017-04-10T01:13:04.906Z,19.49
2017-04-10T01:14:05.483Z,19.47
2017-04-10T01:15:06.063Z,19.54
2017-04-10T01:16:06.639Z,19.45
2017-04-10T01:17:07.217Z,19.51
2017-04-10T01:18:07.796Z,19.41
2017-04-10T01:19:08.372Z,19.48
2017-04-10T01:20:08.964Z,19.36
2017-04-10T01:21:09.539Z,19.44
2017-04-10T01:22:10.118Z,19.44
2017-04-10T01:23:10.696Z,19.39
2017-04-10T01:24:11.270Z,19.30
2017-04-10T01:25:12.047Z,19.40
2017-04-10T01:26:12.626Z,19.33
2017-04-10T01:27:13.203Z,19.34
2017-04-10T01:28:13.796Z,19.40
2017-04-10T01:29:14.372Z,19.37
2017-04-10T01:30:14.951Z,19.37
2017-04-10T01:31:15.544Z,19.39
2017-04-10T01:32:16.120Z,19.31
2017-04-10T01:33:16.694Z,19.27
2017-04-10T01:34:17.271Z,19.37
2017-04-10T01:35:17.848Z,19.33
2017-04-10T01:36:18.426Z,19.36
2017-04-10T01:37:19.002Z,19.27
2017-04-10T01:38:19.578Z,19.24
2017-04-10T01:39:20.156Z,19.27
2017-04-10T01:40:20.931Z,19.26
2017-04-10T01:41:21.510Z,19.27
2017-04-10T01:42:22.085Z,19.26
2017-04-10T01:43:22.663Z,19.19
2017-04-10T01:44:23.239Z,19.24
2017-04-10T01:45:23.818Z,19.14
2017-04-10T01:46:24.413Z,19.14
2017-04-10T01:47:24.989Z,19.15
2017-04-10T01:48:25.566Z,19.15
2017-04-10T01:49:26.143Z,19.14
2017-04-10T01:50:26.720Z,19.18
2017-04-10T01:51:27.298Z,19.09
2017-04-10T01:52:27.872Z,19.16
2017-04-10T01:53:28.448Z,19.07
2017-04-10T01:54:29.026Z,19.07
2017-04-10T01:55:29.803Z,19.02
2017-04-10T01:56:30.380Z,19.07
2017-04-10T01:57:30.958Z,19.09
2017-04-10T01:58:31.534Z,19.04
2017-04-10T01:59:32.114Z,19.07
2017-04-10T02:00:32.690Z,19.00
2017-04-10T02:01:33.283Z,19.00
2017-04-10T02:02:33.862Z,18.99
2017-04-10T02:03:34.436Z,19.00
2017-04-10T02:04:35.014Z,19.04
2017-04-10T02:05:35.590Z,18.88
2017-04-10T02:06:36.166Z,18.96
2017-04-10T02:07:36.742Z,18.88
2017-04-10T02:08:37.318Z,18.93
2017-04-10T02:09:37.897Z,18.95
2017-04-10T02:10:38.672Z,18.95
2017-04-10T02:11:39.250Z,18.92
2017-04-10T02:12:39.827Z,18.95
2017-04-10T02:13:40.403Z,18.93
2017-04-10T02:14:40.979Z,18.92
2017-04-10T02:15:41.556Z,18.75
2017-04-10T02:16:42.133Z,18.89
2017-04-10T02:17:42.709Z,18.84
2017-04-10T02:18:43.285Z,18.84
2017-04-10T02:19:43.863Z,18.74
2017-04-10T02:20:44.438Z,18.81
2017-04-10T02:21:45.014Z,18.75
2017-04-10T02:22:45.590Z,18.77
2017-04-10T02:23:46.167Z,18.80
2017-04-10T02:24:46.746Z,18.83
2017-04-10T02:25:47.520Z,18.88
2017-04-10T02:26:48.098Z,18.71
2017-04-10T02:27:48.674Z,18.83
2017-04-10T02:28:49.250Z,18.73
2017-04-10T02:29:49.829Z,18.73
2017-04-10T02:31:34.653Z,18.68
2017-04-10T02:32:35.230Z,18.66
2017-04-10T02:33:35.806Z,18.70
2017-04-10T02:34:36.382Z,18.63
2017-04-10T02:35:36.958Z,18.70
2017-04-10T02:36:37.537Z,18.73
2017-04-10T02:37:38.111Z,18.59
2017-04-10T02:38:38.686Z,18.63
2017-04-10T02:39:39.264Z,18.60
2017-04-10T02:40:39.841Z,18.65
2017-04-10T02:41:40.617Z,18.62
2017-04-10T02:42:41.199Z,18.63
2017-04-10T02:43:41.772Z,18.62
2017-04-10T02:44:42.347Z,18.59
2017-04-10T02:45:42.922Z,18.62
2017-04-10T02:46:43.501Z,18.59
2017-04-10T02:47:44.078Z,18.53
2017-04-10T02:48:44.653Z,18.62
2017-04-10T02:49:45.230Z,18.47
2017-04-10T02:50:45.826Z,18.47
2017-04-10T02:51:46.402Z,18.44
2017-04-10T02:52:46.978Z,18.47
2017-04-10T02:53:47.555Z,18.47
2017-04-10T02:54:48.133Z,18.35
2017-04-10T02:55:48.728Z,18.37
2017-04-10T02:56:49.502Z,18.37
2017-04-10T02:57:50.079Z,18.34
2017-04-10T02:58:50.656Z,18.28
2017-04-10T02:59:51.233Z,18.34
2017-04-10T03:00:51.810Z,18.28
2017-04-10T03:01:52.388Z,18.28
2017-04-10T03:02:52.963Z,18.26
2017-04-10T03:03:53.539Z,18.38
2017-04-10T03:04:54.131Z,18.31
2017-04-10T03:05:54.708Z,18.38
2017-04-10T03:06:55.284Z,18.29
2017-04-10T03:07:55.877Z,18.31
2017-04-10T03:08:56.453Z,18.25
2017-04-10T03:09:57.044Z,18.34
2017-04-10T03:10:57.619Z,18.37
2017-04-10T03:11:58.196Z,18.40
2017-04-10T03:12:58.773Z,18.35
2017-04-10T03:13:59.349Z,18.28
2017-04-10T03:14:59.943Z,18.33
2017-04-10T03:16:00.520Z,18.40
2017-04-10T03:17:01.299Z,18.35
2017-04-10T03:18:01.874Z,18.34
2017-04-10T03:19:02.452Z,18.34
2017-04-10T03:20:03.029Z,18.34
2017-04-10T03:21:03.603Z,18.34
2017-04-10T03:22:04.181Z,18.34
2017-04-10T03:23:04.757Z,18.40
2017-04-10T03:24:05.333Z,18.34
2017-04-10T03:25:05.907Z,18.44
2017-04-10T03:26:06.482Z,18.37
2017-04-10T03:27:07.061Z,18.34
2017-04-10T03:28:07.654Z,18.34
2017-04-10T03:29:08.231Z,18.37
2017-04-10T03:30:08.806Z,18.35
2017-04-10T03:31:09.383Z,18.35
2017-04-10T03:32:10.176Z,18.37
2017-04-10T03:33:10.767Z,18.37
2017-04-10T03:34:11.343Z,18.38
2017-04-10T03:35:11.920Z,18.35
2017-04-10T03:36:12.496Z,18.38
2017-04-10T03:37:13.073Z,18.35
2017-04-10T03:38:13.651Z,18.35
2017-04-10T03:39:14.224Z,18.33
2017-04-10T03:40:14.801Z,18.35
2017-04-10T03:41:15.377Z,18.38
2017-04-10T03:42:15.951Z,18.37
2017-04-10T03:43:16.529Z,18.41
2017-04-10T03:44:17.104Z,18.35
2017-04-10T03:45:17.680Z,18.38
2017-04-10T03:46:18.255Z,18.40
2017-04-10T03:47:19.029Z,18.37
2017-04-10T03:48:19.604Z,18.40
2017-04-10T03:49:20.180Z,18.40
2017-04-10T03:50:20.757Z,18.41
2017-04-10T03:51:21.334Z,18.45
2017-04-10T03:52:21.912Z,18.41
2017-04-10T03:53:22.488Z,18.38
2017-04-10T03:54:23.063Z,18.35
2017-04-10T03:55:23.642Z,18.35
2017-04-10T03:56:24.217Z,18.40
2017-04-10T03:57:24.792Z,18.38
2017-04-10T03:58:25.369Z,18.41
2017-04-10T03:59:25.945Z,18.38
2017-04-10T04:00:26.520Z,18.38
2017-04-10T04:01:27.096Z,18.35
2017-04-10T04:02:27.672Z,18.41
2017-04-10T04:03:28.250Z,18.26
2017-04-10T04:04:28.827Z,18.26
2017-04-10T04:05:29.421Z,18.25
2017-04-10T04:06:29.998Z,18.23
2017-04-10T04:07:30.574Z,18.23
2017-04-10T04:08:31.150Z,18.26
2017-04-10T04:09:31.725Z,18.25
2017-04-10T04:10:32.301Z,18.23
2017-04-10T04:11:32.877Z,18.23
2017-04-10T04:12:33.654Z,18.20
2017-04-10T04:13:34.230Z,18.18
2017-04-10T04:14:34.808Z,18.10
2017-04-10T04:15:35.383Z,18.10
2017-04-10T04:16:35.959Z,18.15
2017-04-10T04:17:36.534Z,18.05
2017-04-10T04:18:37.109Z,18.15
2017-04-10T04:19:37.685Z,18.07
2017-04-10T04:20:38.262Z,18.08
2017-04-10T04:21:38.857Z,18.11
2017-04-10T04:22:39.633Z,18.07
2017-04-10T04:23:40.210Z,18.07
2017-04-10T04:24:40.787Z,18.08
2017-04-10T04:25:41.382Z,17.98
2017-04-10T04:26:41.976Z,17.98
2017-04-10T04:27:42.550Z,18.00
2017-04-10T04:28:43.127Z,17.92
2017-04-10T04:29:43.703Z,17.95
2017-04-10T04:30:44.281Z,18.03
2017-04-10T04:31:44.857Z,17.90
2017-04-10T04:32:45.435Z,17.85
2017-04-10T04:33:46.017Z,17.90
2017-04-10T04:34:46.590Z,17.87
2017-04-10T04:35:47.168Z,17.80
2017-04-10T04:36:47.746Z,17.86
2017-04-10T04:37:48.522Z,17.82
2017-04-10T04:38:49.101Z,17.79
2017-04-10T04:39:49.679Z,17.85
2017-04-10T04:40:50.258Z,17.78
2017-04-10T04:41:50.835Z,17.74
2017-04-10T04:42:51.415Z,17.71
2017-04-10T04:43:51.993Z,17.70
2017-04-10T04:44:52.569Z,17.80
2017-04-10T04:45:53.150Z,17.65
2017-04-10T04:46:53.728Z,17.71
2017-04-10T04:47:54.309Z,17.70
2017-04-10T04:48:54.904Z,17.70
2017-04-10T04:49:55.482Z,17.70
2017-04-10T04:50:56.062Z,17.68
2017-04-10T04:51:56.641Z,17.60
2017-04-10T04:52:57.419Z,17.63
2017-04-10T04:53:57.996Z,17.54
2017-04-10T04:54:58.574Z,17.59
2017-04-10T04:55:59.155Z,17.64
2017-04-10T04:56:59.751Z,17.56
2017-04-10T04:58:00.328Z,17.52
2017-04-10T04:59:00.908Z,17.54
2017-04-10T05:00:01.489Z,17.56
2017-04-10T05:01:02.069Z,17.60
2017-04-10T05:02:02.646Z,17.65
2017-04-10T05:03:03.223Z,17.59
2017-04-10T05:04:03.804Z,17.51
2017-04-10T05:05:04.382Z,17.52
2017-04-10T05:06:04.961Z,17.54
2017-04-10T05:07:05.540Z,17.56
2017-04-10T05:08:06.121Z,17.59
2017-04-10T05:09:06.699Z,17.51
2017-04-10T05:10:07.277Z,17.54
2017-04-10T05:11:07.860Z,17.56
2017-04-10T05:12:08.435Z,17.52
2017-04-10T05:13:09.015Z,17.49
2017-04-10T05:14:09.593Z,17.46
2017-04-10T05:15:10.170Z,17.41
2017-04-10T05:16:10.751Z,17.51
2017-04-10T05:17:11.330Z,17.49
2017-04-10T05:18:11.910Z,17.54
2017-04-10T05:19:12.489Z,17.49
2017-04-10T05:20:13.068Z,17.52
2017-04-10T05:21:13.650Z,17.54
2017-04-10T05:22:14.231Z,17.45
2017-04-10T05:23:15.026Z,17.46
2017-04-10T05:24:15.609Z,17.56
2017-04-10T05:25:16.186Z,17.54
2017-04-10T05:26:16.768Z,17.54
2017-04-10T05:27:17.347Z,17.52
2017-04-10T05:28:17.928Z,17.46
2017-04-10T05:29:18.509Z,17.49
2017-04-10T05:30:19.087Z,17.59
2017-04-10T05:31:19.666Z,17.63
2017-04-10T05:32:20.246Z,17.59
2017-04-10T05:33:20.827Z,17.49
2017-04-10T05:34:21.407Z,17.49
2017-04-10T05:35:21.986Z,17.65
2017-04-10T05:36:22.566Z,17.63
2017-04-10T05:37:23.147Z,17.54
2017-04-10T05:38:23.926Z,17.68
2017-04-10T05:39:24.521Z,17.68
2017-04-10T05:40:25.100Z,17.72
2017-04-10T05:41:25.686Z,17.68
2017-04-10T05:42:26.280Z,17.82
2017-04-10T05:43:26.859Z,17.78
2017-04-10T05:44:27.438Z,17.74
2017-04-10T05:45:28.018Z,17.79
2017-04-10T05:46:28.600Z,17.87
2017-04-10T05:47:29.182Z,17.87
2017-04-10T05:48:29.777Z,17.94
2017-04-10T05:49:30.356Z,18.03
2017-04-10T05:50:30.937Z,17.95
2017-04-10T05:51:31.518Z,17.97
2017-04-10T05:52:32.097Z,18.04
2017-04-10T05:53:32.875Z,18.04
2017-04-10T05:54:33.462Z,18.15
2017-04-10T05:55:34.035Z,18.11
2017-04-10T05:56:34.615Z,18.19
2017-04-10T05:57:35.198Z,18.11
2017-04-10T05:58:35.777Z,18.23
2017-04-10T05:59:36.356Z,18.28
2017-04-10T06:00:36.937Z,18.22
2017-04-10T06:01:37.518Z,18.34
2017-04-10T06:02:38.098Z,18.38
2017-04-10T06:03:38.678Z,18.26
2017-04-10T06:04:39.259Z,18.35
2017-04-10T06:05:39.842Z,18.37
2017-04-10T06:06:40.422Z,18.35
2017-04-10T06:07:41.005Z,18.34
2017-04-10T06:08:41.783Z,18.34
2017-04-10T06:09:42.362Z,18.41
2017-04-10T06:10:42.942Z,18.41
2017-04-10T06:11:43.523Z,18.38
2017-04-10T06:12:44.106Z,18.31
2017-04-10T06:13:44.686Z,18.35
2017-04-10T06:14:45.267Z,18.41
2017-04-10T06:15:45.847Z,18.33
2017-04-10T06:16:46.430Z,18.37
2017-04-10T06:17:47.010Z,18.41
2017-04-10T06:18:47.590Z,18.44
2017-04-10T06:19:48.172Z,18.44
2017-04-10T06:20:48.755Z,18.50
2017-04-10T06:21:49.333Z,18.55
2017-04-10T06:22:49.914Z,18.63
2017-04-10T06:23:50.694Z,18.60
2017-04-10T06:24:51.273Z,18.62
2017-04-10T06:25:51.853Z,18.58
2017-04-10T06:26:52.436Z,18.60
2017-04-10T06:27:53.015Z,18.65
2017-04-10T06:28:53.596Z,18.63
2017-04-10T06:29:54.176Z,18.66
2017-04-10T06:30:54.758Z,18.73
2017-04-10T06:31:55.338Z,18.74
2017-04-10T06:32:55.921Z,18.70
2017-04-10T06:33:56.497Z,18.75
2017-04-10T06:34:57.076Z,18.73
2017-04-10T06:35:57.655Z,18.68
2017-04-10T06:36:58.235Z,18.71
2017-04-10T06:37:58.816Z,18.71
2017-04-10T06:38:59.398Z,18.84
2017-04-10T06:39:59.978Z,18.80
2017-04-10T06:41:00.552Z,18.77
2017-04-10T06:42:01.133Z,18.77
2017-04-10T06:43:01.710Z,18.84
2017-04-10T06:44:02.288Z,18.81
2017-04-10T06:45:02.868Z,18.84
2017-04-10T06:46:03.446Z,18.77
2017-04-10T06:47:04.026Z,18.89
2017-04-10T06:48:04.605Z,18.90
2017-04-10T06:49:05.185Z,18.95
2017-04-10T06:50:05.763Z,19.04
2017-04-10T06:51:06.342Z,19.02
2017-04-10T06:52:06.921Z,19.07
2017-04-10T06:53:07.501Z,19.15
2017-04-10T06:54:08.079Z,19.22
2017-04-10T06:55:08.672Z,19.29
2017-04-10T06:56:09.253Z,19.27
2017-04-10T06:57:09.834Z,19.18
2017-04-10T06:58:10.422Z,19.27
2017-04-10T06:59:10.996Z,19.37
2017-04-10T07:00:11.580Z,19.44
2017-04-10T07:01:12.159Z,19.51
2017-04-10T07:02:12.741Z,19.47
2017-04-10T07:03:13.323Z,19.49
2017-04-10T07:04:13.920Z,19.45
2017-04-10T07:05:14.508Z,19.47
2017-04-10T07:06:15.099Z,19.45
2017-04-10T07:07:15.680Z,19.47
2017-04-10T07:08:16.261Z,19.39
2017-04-10T07:09:17.059Z,19.40
2017-04-10T07:10:17.641Z,19.39
2017-04-10T07:11:18.227Z,19.44
2017-04-10T07:12:18.822Z,19.41
2017-04-10T07:13:19.404Z,19.40
2017-04-10T07:14:19.985Z,19.34
2017-04-10T07:15:20.567Z,19.37
2017-04-10T07:16:21.147Z,19.45
2017-04-10T07:17:21.730Z,19.36
2017-04-10T07:18:22.310Z,19.52
2017-04-10T07:19:22.895Z,19.39
2017-04-10T07:20:23.471Z,19.52
2017-04-10T07:21:24.053Z,19.48
2017-04-10T07:22:24.633Z,19.52
2017-04-10T07:23:25.215Z,19.58
2017-04-10T07:24:25.796Z,19.58
2017-04-10T07:25:26.396Z,19.69
2017-04-10T07:26:26.978Z,19.81
2017-04-10T07:27:27.559Z,19.86
2017-04-10T07:28:28.140Z,19.82
2017-04-10T07:29:28.923Z,19.94
2017-04-10T07:30:29.506Z,19.96
2017-04-10T07:31:30.088Z,20.06
2017-04-10T07:32:30.670Z,20.06
2017-04-10T07:33:31.255Z,20.09
2017-04-10T07:34:31.835Z,20.14
2017-04-10T07:35:32.416Z,20.11
2017-04-10T07:36:32.998Z,20.02
2017-04-10T07:37:33.579Z,19.91
2017-04-10T07:38:34.161Z,19.92
2017-04-10T07:39:34.743Z,20.00
2017-04-10T07:40:35.325Z,20.06
2017-04-10T07:41:35.926Z,20.21
2017-04-10T07:42:36.503Z,20.29
2017-04-10T07:43:37.092Z,20.41
2017-04-10T07:44:37.870Z,20.63
2017-04-10T07:45:38.452Z,20.66
2017-04-10T07:46:39.035Z,20.81
2017-04-10T07:47:39.617Z,20.74
2017-04-10T07:48:40.200Z,20.96
2017-04-10T07:49:40.786Z,20.92
2017-04-10T07:50:41.364Z,20.92
2017-04-10T07:51:41.945Z,20.84
2017-04-10T07:52:42.528Z,20.70
2017-04-10T07:53:43.110Z,20.80
2017-04-10T07:54:43.892Z,20.63
2017-04-10T07:55:44.472Z,20.59
2017-04-10T07:56:45.055Z,20.55
2017-04-10T07:57:45.639Z,20.37
2017-04-10T07:58:46.221Z,20.34
2017-04-10T07:59:46.802Z,20.25
2017-04-10T08:00:47.386Z,20.16
2017-04-10T08:01:47.973Z,20.18
2017-04-10T08:02:48.567Z,20.13
2017-04-10T08:03:49.154Z,20.06
2017-04-10T08:04:49.731Z,20.10
2017-04-10T08:05:50.311Z,20.11
2017-04-10T08:06:50.893Z,20.24
2017-04-10T08:07:51.475Z,20.41
2017-04-10T08:08:52.056Z,20.47
2017-04-10T08:09:52.835Z,20.50
2017-04-10T08:10:53.417Z,20.56
2017-04-10T08:11:53.997Z,20.59
2017-04-10T08:12:54.578Z,20.60
2017-04-10T08:13:55.165Z,20.60
2017-04-10T08:14:55.743Z,20.74
2017-04-10T08:15:56.322Z,20.74
2017-04-10T08:16:56.901Z,20.72
2017-04-10T08:17:57.482Z,20.70
2017-04-10T08:18:58.062Z,20.75
2017-04-10T08:19:58.845Z,20.72
2017-04-10T08:20:59.427Z,20.66
2017-04-10T08:22:00.008Z,20.66
2017-04-10T08:23:00.589Z,20.63
2017-04-10T08:24:01.170Z,20.59
2017-04-10T08:25:01.751Z,20.56
2017-04-10T08:26:02.332Z,20.52
2017-04-10T08:27:02.912Z,20.50
2017-04-10T08:28:03.495Z,20.43
2017-04-10T08:29:04.075Z,20.31
2017-04-10T08:30:04.655Z,20.43
2017-04-10T08:31:05.251Z,20.36
2017-04-10T08:32:05.832Z,20.28
2017-04-10T08:33:06.414Z,20.34
2017-04-10T08:34:07.010Z,20.37
2017-04-10T08:35:07.791Z,20.47
2017-04-10T08:36:08.372Z,20.65
2017-04-10T08:37:08.953Z,20.75
2017-04-10T08:38:09.534Z,20.95
2017-04-10T08:39:10.130Z,20.92
2017-04-10T08:40:10.710Z,20.90
2017-04-10T08:41:11.291Z,21.02
2017-04-10T08:42:11.872Z,21.02
2017-04-10T08:43:12.453Z,20.92
2017-04-10T08:44:13.038Z,21.05
2017-04-10T08:45:13.614Z,21.05
2017-04-10T08:46:14.195Z,21.15
2017-04-10T08:47:14.775Z,21.22
2017-04-10T08:48:15.355Z,21.25
2017-04-10T08:49:15.938Z,21.25
2017-04-10T08:50:16.719Z,21.29
2017-04-10T08:51:17.300Z,21.37
2017-04-10T08:52:17.881Z,21.33
2017-04-10T08:53:18.463Z,21.51
2017-04-10T08:54:19.044Z,21.48
2017-04-10T08:55:19.625Z,21.40
2017-04-10T08:56:20.205Z,21.37
2017-04-10T08:57:20.786Z,21.37
2017-04-10T08:58:21.366Z,21.33
2017-04-10T08:59:21.949Z,21.40
2017-04-10T09:00:22.529Z,21.46
2017-04-10T09:01:23.111Z,21.43
2017-04-10T09:02:23.691Z,21.36
2017-04-10T09:03:24.272Z,21.25
2017-04-10T09:04:24.853Z,21.14
2017-04-10T09:05:25.634Z,20.99
2017-04-10T09:06:26.214Z,20.84
2017-04-10T09:07:26.795Z,20.77
2017-04-10T09:08:27.381Z,20.63
2017-04-10T09:09:27.957Z,20.58
2017-04-10T09:10:28.536Z,20.41
2017-04-10T09:11:29.116Z,20.28
2017-04-10T09:12:29.710Z,20.19
2017-04-10T09:13:30.290Z,20.07
2017-04-10T09:14:30.868Z,20.03
2017-04-10T09:15:31.447Z,19.96
2017-04-10T09:16:32.029Z,19.84
2017-04-10T09:17:32.610Z,19.79
2017-04-10T09:18:33.192Z,19.69
2017-04-10T09:19:33.790Z,19.63
2017-04-10T09:20:34.571Z,19.55
2017-04-10T09:21:35.153Z,19.52
2017-04-10T09:22:35.749Z,19.51
2017-04-10T09:23:36.333Z,19.29
2017-04-10T09:24:36.910Z,19.21
2017-04-10T09:25:37.491Z,19.12
2017-04-10T09:26:38.071Z,19.07
2017-04-10T09:27:38.652Z,19.08
2017-04-10T09:28:39.231Z,19.02
2017-04-10T09:29:39.813Z,19.09
2017-04-10T09:30:40.395Z,19.39
2017-04-10T09:31:40.978Z,19.74
2017-04-10T09:32:41.560Z,20.06
2017-04-10T09:33:42.144Z,20.29
2017-04-10T09:34:42.730Z,20.37
2017-04-10T09:35:43.325Z,20.59
2017-04-10T09:36:43.907Z,20.65
2017-04-10T09:37:44.490Z,20.95
2017-04-10T09:38:45.073Z,21.21
2017-04-10T09:39:45.657Z,21.57
2017-04-10T09:40:46.237Z,22.07
2017-04-10T09:41:46.836Z,22.35
2017-04-10T09:42:47.419Z,22.60
2017-04-10T09:43:48.003Z,22.78
2017-04-10T09:44:48.590Z,22.99
2017-04-10T09:45:49.370Z,23.03
2017-04-10T09:46:49.953Z,23.20
2017-04-10T09:47:50.537Z,23.24
2017-04-10T09:48:51.121Z,23.02
2017-04-10T09:49:51.719Z,22.83
2017-04-10T09:50:52.302Z,22.43
2017-04-10T09:51:52.885Z,22.14
2017-04-10T09:52:53.470Z,21.76
2017-04-10T09:53:54.051Z,21.50
2017-04-10T09:54:54.635Z,21.25
2017-04-10T09:55:55.219Z,21.06
2017-04-10T09:56:55.801Z,21.00
2017-04-10T09:57:56.382Z,21.03
2017-04-10T09:58:56.967Z,21.24
2017-04-10T09:59:57.549Z,21.40
2017-04-10T10:00:58.132Z,21.52
2017-04-10T10:01:58.717Z,21.75
2017-04-10T10:02:59.301Z,21.83
2017-04-10T10:03:59.886Z,21.98
2017-04-10T10:05:00.469Z,22.07
2017-04-10T10:06:01.253Z,22.17
2017-04-10T10:07:01.836Z,22.11
2017-04-10T10:08:02.422Z,22.15
2017-04-10T10:09:03.006Z,22.23
2017-04-10T10:10:03.585Z,22.06
2017-04-10T10:11:04.168Z,21.93
2017-04-10T10:12:04.751Z,21.85
2017-04-10T10:13:05.332Z,21.55
2017-04-10T10:14:05.914Z,21.51
2017-04-10T10:15:06.497Z,21.35
2017-04-10T10:16:07.080Z,21.37
2017-04-10T10:17:07.661Z,21.37
2017-04-10T10:18:08.244Z,21.50
2017-04-10T10:19:08.829Z,21.58
2017-04-10T10:20:09.410Z,21.79
2017-04-10T10:21:09.993Z,21.95
2017-04-10T10:22:10.577Z,22.18
2017-04-10T10:23:11.162Z,22.33
2017-04-10T10:24:11.747Z,22.60
2017-04-10T10:25:12.330Z,22.73
2017-04-10T10:26:12.914Z,22.83
2017-04-10T10:27:13.495Z,22.81
2017-04-10T10:28:14.080Z,22.84
2017-04-10T10:29:14.662Z,22.85
2017-04-10T10:30:15.246Z,22.83
2017-04-10T10:31:16.029Z,22.68
2017-04-10T10:32:16.611Z,22.63
2017-04-10T10:33:17.192Z,22.41
2017-04-10T10:34:17.775Z,22.50
2017-04-10T10:35:18.374Z,22.35
2017-04-10T10:36:18.974Z,22.18
2017-04-10T10:37:19.557Z,22.06
2017-04-10T10:38:20.142Z,21.73
2017-04-10T10:39:20.723Z,21.87
2017-04-10T10:40:21.306Z,21.89
2017-04-10T10:41:22.089Z,21.87
2017-04-10T10:42:22.670Z,21.87
2017-04-10T10:43:23.252Z,21.96
2017-04-10T10:44:23.851Z,21.99
2017-04-10T10:45:24.434Z,21.92
2017-04-10T10:46:25.017Z,21.85
2017-04-10T10:47:25.599Z,21.99
2017-04-10T10:48:26.182Z,21.98
2017-04-10T10:49:26.783Z,21.82
2017-04-10T10:50:27.367Z,21.87
2017-04-10T10:51:27.949Z,21.96
2017-04-10T10:52:28.540Z,22.15
2017-04-10T10:53:29.117Z,22.41
2017-04-10T10:54:29.703Z,22.70
2017-04-10T10:55:30.302Z,22.80
2017-04-10T10:56:31.087Z,22.98
2017-04-10T10:57:31.674Z,22.87
2017-04-10T10:58:32.256Z,22.70
2017-04-10T10:59:32.858Z,22.54
2017-04-10T11:00:33.459Z,22.32
2017-04-10T11:01:34.043Z,22.28
2017-04-10T11:02:34.625Z,22.26
2017-04-10T11:03:35.209Z,22.26
2017-04-10T11:04:35.793Z,22.57
2017-04-10T11:05:36.378Z,22.81
2017-04-10T11:06:36.962Z,22.99
2017-04-10T11:07:37.563Z,23.17
2017-04-10T11:08:38.146Z,23.43
2017-04-10T11:09:38.745Z,23.58
2017-04-10T11:10:39.330Z,23.66
2017-04-10T11:11:39.930Z,23.78
2017-04-10T11:12:40.513Z,23.86
2017-04-10T11:13:41.095Z,23.91
2017-04-10T11:14:41.680Z,23.84
2017-04-10T11:15:42.266Z,23.92
2017-04-10T11:16:43.046Z,23.84
2017-04-10T11:17:43.631Z,23.80
2017-04-10T11:18:44.212Z,23.77
2017-04-10T11:19:44.797Z,23.69
2017-04-10T11:20:45.379Z,23.68
2017-04-10T11:21:45.964Z,23.63
2017-04-10T11:22:46.545Z,23.61
2017-04-10T11:23:47.131Z,23.63
2017-04-10T11:24:47.733Z,23.83
2017-04-10T11:25:48.317Z,23.81
2017-04-10T11:26:48.900Z,23.81
2017-04-10T11:27:49.486Z,23.81
2017-04-10T11:28:50.070Z,23.78
2017-04-10T11:29:50.653Z,23.74
2017-04-10T11:30:51.237Z,23.68
2017-04-10T11:31:52.023Z,23.71
2017-04-10T11:32:52.606Z,23.68
2017-04-10T11:33:53.190Z,23.80
2017-04-10T11:34:53.776Z,23.74
2017-04-10T11:35:54.362Z,23.87
2017-04-10T11:36:54.945Z,23.95
2017-04-10T11:37:55.529Z,23.95
2017-04-10T11:38:56.112Z,23.91
2017-04-10T11:39:56.698Z,23.99
2017-04-10T11:40:57.280Z,23.81
2017-04-10T11:41:57.862Z,23.84
2017-04-10T11:42:58.445Z,23.80
2017-04-10T11:43:59.032Z,23.77
2017-04-10T11:44:59.615Z,23.91
2017-04-10T11:46:00.214Z,23.93
2017-04-10T11:47:00.799Z,24.10
2017-04-10T11:48:01.384Z,24.24
2017-04-10T11:49:01.968Z,24.35
2017-04-10T11:50:02.571Z,24.48
2017-04-10T11:51:03.156Z,24.57
2017-04-10T11:52:03.941Z,24.58
2017-04-10T11:53:04.541Z,24.47
2017-04-10T11:54:05.124Z,24.29
2017-04-10T11:55:05.707Z,24.13
2017-04-10T11:56:06.291Z,24.02
2017-04-10T11:57:06.875Z,23.95
2017-04-10T11:58:07.462Z,23.96
2017-04-10T11:59:08.042Z,23.92
2017-04-10T12:00:08.628Z,23.87
2017-04-10T12:01:09.210Z,23.66
2017-04-10T12:02:09.794Z,23.69
2017-04-10T12:03:10.377Z,23.54
2017-04-10T12:04:10.961Z,23.39
2017-04-10T12:05:11.546Z,23.25
2017-04-10T12:06:12.130Z,23.15
2017-04-10T12:07:12.920Z,23.18
2017-04-10T12:08:13.496Z,23.41
2017-04-10T12:09:14.080Z,23.39
2017-04-10T12:10:14.663Z,23.40
2017-04-10T12:11:15.247Z,23.44
2017-04-10T12:12:15.832Z,23.28
2017-04-10T12:13:16.413Z,23.09
2017-04-10T12:14:17.013Z,22.98
2017-04-10T12:15:17.601Z,22.83
2017-04-10T12:16:18.198Z,22.81
2017-04-10T12:17:18.780Z,22.72
2017-04-10T12:18:19.364Z,22.81
2017-04-10T12:19:19.946Z,22.78
2017-04-10T12:20:20.530Z,22.94
2017-04-10T12:21:21.113Z,23.10
2017-04-10T12:22:21.899Z,23.34
2017-04-10T12:23:22.482Z,23.58
2017-04-10T12:24:23.065Z,23.73
2017-04-10T12:25:23.666Z,23.87
2017-04-10T12:26:24.250Z,24.02
2017-04-10T12:27:24.836Z,23.95
2017-04-10T12:28:25.422Z,23.87
2017-04-10T12:29:26.003Z,23.86
2017-04-10T12:30:26.605Z,23.81
2017-04-10T12:31:27.189Z,23.68
2017-04-10T12:32:27.774Z,23.71
2017-04-10T12:33:28.360Z,23.71
2017-04-10T12:34:28.949Z,23.65
2017-04-10T12:35:29.530Z,23.81
2017-04-10T12:36:30.118Z,23.80
2017-04-10T12:37:30.697Z,23.77
2017-04-10T12:38:31.283Z,23.81
2017-04-10T12:39:31.867Z,23.86
2017-04-10T12:40:32.451Z,23.66
2017-04-10T12:41:33.034Z,23.58
2017-04-10T12:42:33.619Z,23.56
2017-04-10T12:43:34.223Z,23.78
2017-04-10T12:44:34.806Z,23.84
2017-04-10T12:45:35.393Z,24.11
2017-04-10T12:46:35.976Z,24.29
2017-04-10T12:47:36.759Z,24.40
2017-04-10T12:48:37.343Z,24.29
2017-04-10T12:49:37.928Z,24.13
2017-04-10T12:50:38.512Z,24.06
2017-04-10T12:51:39.096Z,23.92
2017-04-10T12:52:39.681Z,23.88
2017-04-10T12:53:40.283Z,24.01
2017-04-10T12:54:40.868Z,24.05
2017-04-10T12:55:41.452Z,24.01
2017-04-10T12:56:42.034Z,24.11
2017-04-10T12:57:42.621Z,24.16
2017-04-10T12:58:43.207Z,24.17
2017-04-10T12:59:43.791Z,24.18
2017-04-10T13:00:44.376Z,24.20